»·PEaware :: SWA717 KFLG-KLAS

SWA717 :: KFLG-KLAS

FLIGHT INFORMATION

Flight Status: Arrived
Operator:
Southwest Airlines
More flights by this operator :: More flights under this callsign
Pilot: Chad X. (8044)
Aircraft: BOEING 737-300
(B733)
More flights by this aircraft type
Origin: KFLG Flagstaff Pulliam
United States
Destination: KLAS McCarran Intl
United States
More flights between these airports :: More routes between these airports
Route: +FLG1 OATES PGS TYSSN5
File this flight plan on PilotEdge
Remarks:
Altitude:
(Current/Filed)
24,000ft
Speed:
(Current/Filed)
450kts
Departed: 06-Apr-18 05:04 PM
Arrived: 06-Apr-18 05:48 PM
Distance/Time
Traveled:
179nm/0:44
Distance/Time
To Go:
Arrived

Flight Plot

Page will automatically refresh every two minutes.

Flight plan parsing failed; only flown route is shown


Map Options




Map Legend


Flown Route
Filed Route
Departure Airport
Arrival Airport
Navaid (VOR, NDB)
Fix

Horizontal Profiles

Position Reports

Time Latitude Longitude Heading Altitude Ground
Speed
06-Apr-18 16:26 35.138503 -111.674317 349 7018ft 0kts
06-Apr-18 16:27 35.138503 -111.674317 349 7018ft 0kts
06-Apr-18 16:28 35.138503 -111.674317 349 7018ft 0kts
06-Apr-18 16:29 35.138503 -111.674317 349 7018ft 0kts
06-Apr-18 16:30 35.138503 -111.674317 349 7018ft 0kts
06-Apr-18 16:31 35.138503 -111.674317 349 7018ft 0kts
06-Apr-18 16:32 35.138503 -111.674317 349 7018ft 0kts
06-Apr-18 16:33 35.138503 -111.674317 349 7018ft 0kts
06-Apr-18 16:34 35.138503 -111.674317 349 7018ft 0kts
06-Apr-18 16:35 35.138503 -111.674317 349 7018ft 0kts
06-Apr-18 16:36 35.138503 -111.674317 349 7018ft 0kts
06-Apr-18 16:37 35.138503 -111.674317 349 7018ft 0kts
06-Apr-18 16:38 35.138503 -111.674317 349 7018ft 0kts
06-Apr-18 16:39 35.138503 -111.674317 349 7018ft 0kts
06-Apr-18 16:40 35.138503 -111.674317 349 7018ft 0kts
06-Apr-18 16:41 35.138503 -111.674317 349 7018ft 0kts
06-Apr-18 16:42 35.138503 -111.674317 349 7018ft 0kts
06-Apr-18 16:43 35.138503 -111.674317 349 7018ft 0kts
06-Apr-18 16:44 35.138503 -111.674317 349 7018ft 0kts
06-Apr-18 16:45 35.138503 -111.674317 349 7018ft 0kts
06-Apr-18 16:46 35.138503 -111.674317 349 7018ft 0kts
06-Apr-18 16:47 35.138503 -111.674317 349 7018ft 0kts
06-Apr-18 16:48 35.138503 -111.674317 349 7018ft 0kts
06-Apr-18 16:49 35.138351 -111.674284 350 7018ft 2kts
06-Apr-18 16:50 35.137762 -111.674160 350 7018ft 2kts
06-Apr-18 16:51 35.137337 -111.674175 41 7018ft 1kts
06-Apr-18 16:52 35.137332 -111.674181 40 7018ft 0kts
06-Apr-18 16:53 35.137332 -111.674181 40 7018ft 0kts
06-Apr-18 16:54 35.137344 -111.674168 40 7018ft 0kts
06-Apr-18 16:55 35.138355 -111.673120 41 7018ft 11kts
06-Apr-18 16:56 35.142193 -111.669009 41 7018ft 22kts
06-Apr-18 16:57 35.147054 -111.663841 40 7018ft 23kts
06-Apr-18 16:58 35.149851 -111.660509 119 7018ft 0kts
06-Apr-18 16:59 35.149848 -111.660503 120 7018ft 0kts
06-Apr-18 17:00 35.149848 -111.660503 120 7018ft 0kts
06-Apr-18 17:01 35.149848 -111.660503 120 7018ft 0kts
06-Apr-18 17:02 35.149751 -111.660311 122 7018ft 5kts
06-Apr-18 17:03 35.142478 -111.666938 222 7018ft 119kts
06-Apr-18 17:04 35.110484 -111.701306 221 8913ft 163kts
06-Apr-18 17:05 35.073598 -111.737322 221 10547ft 199kts
06-Apr-18 17:06 35.019653 -111.770113 170 10424ft 245kts
06-Apr-18 17:07 34.951722 -111.742862 165 10423ft 292kts
06-Apr-18 17:08 34.873740 -111.714241 181 10680ft 304kts
06-Apr-18 17:09 34.836918 -111.781960 298 11952ft 290kts
06-Apr-18 17:10 34.905077 -111.835182 328 11919ft 295kts
06-Apr-18 17:11 34.956740 -111.908452 300 13806ft 291kts
06-Apr-18 17:12 34.995843 -111.993898 296 16657ft 294kts
06-Apr-18 17:13 35.035388 -112.081501 305 19254ft 300kts
06-Apr-18 17:14 35.108277 -112.132545 305 21398ft 306kts
06-Apr-18 17:15 35.148300 -112.223526 295 23520ft 307kts
06-Apr-18 17:16 35.188142 -112.321590 295 23948ft 348kts
06-Apr-18 17:17 35.233086 -112.432964 295 24036ft 372kts
06-Apr-18 17:18 35.278701 -112.546020 295 24035ft 371kts
06-Apr-18 17:19 35.324357 -112.659008 295 24023ft 372kts
06-Apr-18 17:20 35.369878 -112.772443 295 24037ft 371kts
06-Apr-18 17:21 35.419681 -112.882646 316 24028ft 378kts
06-Apr-18 17:22 35.497933 -112.963552 293 24038ft 376kts
06-Apr-18 17:23 35.533955 -113.084382 288 24028ft 379kts
06-Apr-18 17:24 35.568046 -113.206426 288 23959ft 378kts
06-Apr-18 17:25 35.602287 -113.328751 288 23402ft 379kts
06-Apr-18 17:26 35.636900 -113.452150 288 22410ft 384kts
06-Apr-18 17:27 35.663055 -113.578540 260 21404ft 391kts
06-Apr-18 17:28 35.650530 -113.709366 276 20403ft 393kts
06-Apr-18 17:29 35.667523 -113.842970 279 19414ft 398kts
06-Apr-18 17:30 35.686210 -113.976952 279 18948ft 393kts
06-Apr-18 17:31 35.704400 -114.107283 279 18141ft 378kts
06-Apr-18 17:32 35.721329 -114.228881 279 16322ft 345kts
06-Apr-18 17:33 35.737042 -114.342601 278 13549ft 332kts
06-Apr-18 17:34 35.799193 -114.410746 337 11327ft 312kts
06-Apr-18 17:35 35.877323 -114.446543 336 9760ft 281kts
06-Apr-18 17:36 35.944625 -114.478071 336 9791ft 247kts
06-Apr-18 17:37 36.000763 -114.504995 334 9708ft 191kts
06-Apr-18 17:38 36.054366 -114.535748 310 9813ft 253kts
06-Apr-18 17:39 36.071572 -114.623251 276 8800ft 278kts
06-Apr-18 17:40 36.080548 -114.712325 275 7791ft 249kts
06-Apr-18 17:41 36.082441 -114.793260 267 7322ft 235kts
06-Apr-18 17:42 36.080666 -114.875345 265 5655ft 243kts
06-Apr-18 17:43 36.077495 -114.956405 263 4007ft 227kts
06-Apr-18 17:44 36.074406 -115.025139 265 3046ft 177kts
06-Apr-18 17:45 36.074675 -115.078166 265 2456ft 147kts
06-Apr-18 17:46 36.073671 -115.127807 265 2214ft 134kts
06-Apr-18 17:47 36.074537 -115.150207 300 2148ft 14kts
06-Apr-18 17:48 36.076229 -115.151870 335 2148ft 12kts
06-Apr-18 17:49 36.080112 -115.154106 335 2148ft 15kts
06-Apr-18 17:50 36.083467 -115.154898 22 2148ft 8kts
06-Apr-18 17:51 36.083720 -115.152704 75 2148ft 10kts
06-Apr-18 17:52 36.083673 -115.152235 115 2148ft 0kts
06-Apr-18 17:53 36.083674 -115.152235 115 2148ft 0kts

Navigation Log

Ident Type
Flight plan parsing failed, navigation log unavailable